sensor_id;sensor_type;location;lat;lon;timestamp;P1;durP1;ratioP1;P2;durP2;ratioP2
51030;SDS011;37058;41.442;23.240;2022-09-09T00:11:24;4.32;;;3.08;;
51030;SDS011;37058;41.442;23.240;2022-09-09T00:14:34;7.22;;;4.35;;
51030;SDS011;37058;41.442;23.240;2022-09-09T00:17:16;4.75;;;3.60;;
51030;SDS011;37058;41.442;23.240;2022-09-09T00:20:20;5.32;;;3.85;;
51030;SDS011;37058;41.442;23.240;2022-09-09T00:23:33;8.70;;;4.10;;
51030;SDS011;37058;41.442;23.240;2022-09-09T00:26:18;6.05;;;4.38;;
51030;SDS011;37058;41.442;23.240;2022-09-09T00:29:10;5.43;;;4.32;;
51030;SDS011;37058;41.442;23.240;2022-09-09T00:32:05;4.47;;;3.58;;
51030;SDS011;37058;41.442;23.240;2022-09-09T00:34:51;4.75;;;3.70;;
51030;SDS011;37058;41.442;23.240;2022-09-09T00:37:30;5.18;;;3.80;;
51030;SDS011;37058;41.442;23.240;2022-09-09T00:39:58;5.15;;;4.07;;
51030;SDS011;37058;41.442;23.240;2022-09-09T00:42:41;5.28;;;4.03;;
51030;SDS011;37058;41.442;23.240;2022-09-09T00:47:47;6.25;;;5.00;;
51030;SDS011;37058;41.442;23.240;2022-09-09T00:50:35;6.53;;;4.68;;
51030;SDS011;37058;41.442;23.240;2022-09-09T00:53:18;7.07;;;4.60;;
51030;SDS011;37058;41.442;23.240;2022-09-09T00:56:14;5.28;;;4.05;;
51030;SDS011;37058;41.442;23.240;2022-09-09T00:59:07;6.80;;;4.80;;
51030;SDS011;37058;41.442;23.240;2022-09-09T01:08:20;5.82;;;4.57;;
51030;SDS011;37058;41.442;23.240;2022-09-09T01:11:05;9.88;;;4.55;;
51030;SDS011;37058;41.442;23.240;2022-09-09T01:13:53;5.15;;;4.40;;
51030;SDS011;37058;41.442;23.240;2022-09-09T01:16:50;6.35;;;4.28;;
51030;SDS011;37058;41.442;23.240;2022-09-09T01:19:27;5.75;;;4.45;;
51030;SDS011;37058;41.442;23.240;2022-09-09T01:22:26;6.07;;;4.80;;
51030;SDS011;37058;41.442;23.240;2022-09-09T01:25:20;5.28;;;4.10;;
51030;SDS011;37058;41.442;23.240;2022-09-09T01:28:21;6.35;;;5.05;;
51030;SDS011;37058;41.442;23.240;2022-09-09T01:31:04;6.72;;;3.80;;
51030;SDS011;37058;41.442;23.240;2022-09-09T01:33:40;5.95;;;4.70;;
51030;SDS011;37058;41.442;23.240;2022-09-09T01:39:43;13.63;;;4.43;;
51030;SDS011;37058;41.442;23.240;2022-09-09T01:42:25;12.93;;;4.75;;
51030;SDS011;37058;41.442;23.240;2022-09-09T01:45:04;6.03;;;4.22;;
51030;SDS011;37058;41.442;23.240;2022-09-09T01:47:41;5.20;;;4.00;;
51030;SDS011;37058;41.442;23.240;2022-09-09T01:50:23;5.90;;;4.47;;
51030;SDS011;37058;41.442;23.240;2022-09-09T01:52:56;5.90;;;4.32;;
51030;SDS011;37058;41.442;23.240;2022-09-09T01:55:38;6.82;;;3.65;;
51030;SDS011;37058;41.442;23.240;2022-09-09T01:58:31;5.15;;;4.00;;
51030;SDS011;37058;41.442;23.240;2022-09-09T02:04:30;5.93;;;3.97;;
51030;SDS011;37058;41.442;23.240;2022-09-09T02:14:00;6.07;;;4.57;;
51030;SDS011;37058;41.442;23.240;2022-09-09T02:16:56;4.97;;;3.70;;
51030;SDS011;37058;41.442;23.240;2022-09-09T02:19:42;7.50;;;4.00;;
51030;SDS011;37058;41.442;23.240;2022-09-09T02:22:27;6.10;;;4.50;;
51030;SDS011;37058;41.442;23.240;2022-09-09T02:24:59;4.93;;;4.22;;
51030;SDS011;37058;41.442;23.240;2022-09-09T02:27:30;6.20;;;4.70;;
51030;SDS011;37058;41.442;23.240;2022-09-09T02:30:03;5.85;;;4.15;;
51030;SDS011;37058;41.442;23.240;2022-09-09T02:32:32;4.80;;;4.20;;
51030;SDS011;37058;41.442;23.240;2022-09-09T02:35:12;5.47;;;4.43;;
51030;SDS011;37058;41.442;23.240;2022-09-09T02:37:44;7.65;;;4.68;;
51030;SDS011;37058;41.442;23.240;2022-09-09T02:40:11;7.60;;;5.13;;
51030;SDS011;37058;41.442;23.240;2022-09-09T02:42:43;4.95;;;3.90;;
51030;SDS011;37058;41.442;23.240;2022-09-09T02:47:59;6.38;;;4.40;;
51030;SDS011;37058;41.442;23.240;2022-09-09T02:50:51;5.80;;;4.38;;
51030;SDS011;37058;41.442;23.240;2022-09-09T02:53:48;5.88;;;4.72;;
51030;SDS011;37058;41.442;23.240;2022-09-09T02:56:29;6.00;;;4.80;;
51030;SDS011;37058;41.442;23.240;2022-09-09T02:59:03;6.15;;;4.93;;
51030;SDS011;37058;41.442;23.240;2022-09-09T03:01:30;6.35;;;4.70;;
51030;SDS011;37058;41.442;23.240;2022-09-09T03:03:56;5.82;;;4.57;;
51030;SDS011;37058;41.442;23.240;2022-09-09T03:06:30;7.97;;;4.18;;
51030;SDS011;37058;41.442;23.240;2022-09-09T03:08:57;6.18;;;4.78;;
51030;SDS011;37058;41.442;23.240;2022-09-09T03:11:26;5.25;;;4.20;;
51030;SDS011;37058;41.442;23.240;2022-09-09T03:13:54;7.05;;;5.20;;
51030;SDS011;37058;41.442;23.240;2022-09-09T03:16:24;6.68;;;4.80;;
51030;SDS011;37058;41.442;23.240;2022-09-09T03:21:20;6.40;;;4.18;;
51030;SDS011;37058;41.442;23.240;2022-09-09T03:23:46;8.60;;;4.95;;
51030;SDS011;37058;41.442;23.240;2022-09-09T03:26:13;5.97;;;4.57;;
51030;SDS011;37058;41.442;23.240;2022-09-09T03:28:46;6.55;;;4.90;;
51030;SDS011;37058;41.442;23.240;2022-09-09T03:31:27;7.72;;;5.40;;
51030;SDS011;37058;41.442;23.240;2022-09-09T03:34:06;8.05;;;3.67;;
51030;SDS011;37058;41.442;23.240;2022-09-09T03:36:42;4.93;;;3.78;;
51030;SDS011;37058;41.442;23.240;2022-09-09T03:39:14;4.95;;;3.70;;
51030;SDS011;37058;41.442;23.240;2022-09-09T03:41:47;5.45;;;4.00;;
51030;SDS011;37058;41.442;23.240;2022-09-09T03:44:29;5.55;;;4.20;;
51030;SDS011;37058;41.442;23.240;2022-09-09T03:47:10;4.53;;;3.30;;
51030;SDS011;37058;41.442;23.240;2022-09-09T03:49:47;4.63;;;3.35;;
51030;SDS011;37058;41.442;23.240;2022-09-09T03:52:14;3.80;;;3.00;;
51030;SDS011;37058;41.442;23.240;2022-09-09T03:54:41;4.13;;;2.80;;
51030;SDS011;37058;41.442;23.240;2022-09-09T03:57:10;4.75;;;3.80;;
51030;SDS011;37058;41.442;23.240;2022-09-09T03:59:38;6.63;;;4.20;;
51030;SDS011;37058;41.442;23.240;2022-09-09T04:02:05;5.38;;;3.47;;
51030;SDS011;37058;41.442;23.240;2022-09-09T04:04:37;5.78;;;3.70;;
51030;SDS011;37058;41.442;23.240;2022-09-09T04:07:03;5.43;;;3.88;;
51030;SDS011;37058;41.442;23.240;2022-09-09T04:09:32;5.63;;;3.95;;
51030;SDS011;37058;41.442;23.240;2022-09-09T04:11:58;5.88;;;4.47;;
51030;SDS011;37058;41.442;23.240;2022-09-09T04:14:24;6.10;;;4.57;;
51030;SDS011;37058;41.442;23.240;2022-09-09T04:16:53;16.17;;;6.15;;
51030;SDS011;37058;41.442;23.240;2022-09-09T04:19:21;10.93;;;8.43;;
51030;SDS011;37058;41.442;23.240;2022-09-09T04:21:47;11.35;;;4.80;;
51030;SDS011;37058;41.442;23.240;2022-09-09T04:24:15;5.68;;;4.20;;
51030;SDS011;37058;41.442;23.240;2022-09-09T04:26:41;5.55;;;3.65;;
51030;SDS011;37058;41.442;23.240;2022-09-09T04:29:07;6.70;;;3.67;;
51030;SDS011;37058;41.442;23.240;2022-09-09T04:31:35;3.97;;;3.10;;
51030;SDS011;37058;41.442;23.240;2022-09-09T04:34:02;4.05;;;3.28;;
51030;SDS011;37058;41.442;23.240;2022-09-09T04:36:30;4.90;;;3.20;;
51030;SDS011;37058;41.442;23.240;2022-09-09T04:39:00;4.30;;;3.55;;
51030;SDS011;37058;41.442;23.240;2022-09-09T04:41:26;4.22;;;3.30;;
51030;SDS011;37058;41.442;23.240;2022-09-09T04:43:52;5.10;;;3.35;;
51030;SDS011;37058;41.442;23.240;2022-09-09T04:46:19;6.15;;;4.88;;
51030;SDS011;37058;41.442;23.240;2022-09-09T04:48:48;5.88;;;3.92;;
51030;SDS011;37058;41.442;23.240;2022-09-09T04:51:15;5.30;;;4.25;;
51030;SDS011;37058;41.442;23.240;2022-09-09T04:53:44;8.93;;;6.00;;
51030;SDS011;37058;41.442;23.240;2022-09-09T04:56:16;6.13;;;5.28;;
51030;SDS011;37058;41.442;23.240;2022-09-09T04:58:48;7.18;;;6.05;;
51030;SDS011;37058;41.442;23.240;2022-09-09T05:01:23;11.38;;;6.90;;
51030;SDS011;37058;41.442;23.240;2022-09-09T05:03:54;8.43;;;5.53;;
51030;SDS011;37058;41.442;23.240;2022-09-09T05:06:27;6.10;;;4.53;;
51030;SDS011;37058;41.442;23.240;2022-09-09T05:08:59;7.00;;;5.57;;
51030;SDS011;37058;41.442;23.240;2022-09-09T05:11:31;4.85;;;4.22;;
51030;SDS011;37058;41.442;23.240;2022-09-09T05:14:03;4.70;;;3.67;;
51030;SDS011;37058;41.442;23.240;2022-09-09T05:16:31;4.78;;;3.92;;
51030;SDS011;37058;41.442;23.240;2022-09-09T05:19:03;4.78;;;3.80;;
51030;SDS011;37058;41.442;23.240;2022-09-09T05:21:36;5.63;;;3.72;;
51030;SDS011;37058;41.442;23.240;2022-09-09T05:24:03;5.88;;;3.83;;
51030;SDS011;37058;41.442;23.240;2022-09-09T05:26:29;6.40;;;3.60;;
51030;SDS011;37058;41.442;23.240;2022-09-09T05:28:56;4.88;;;3.58;;
51030;SDS011;37058;41.442;23.240;2022-09-09T05:31:25;5.10;;;4.05;;
51030;SDS011;37058;41.442;23.240;2022-09-09T05:33:53;9.40;;;4.47;;
51030;SDS011;37058;41.442;23.240;2022-09-09T05:36:21;5.00;;;4.20;;
51030;SDS011;37058;41.442;23.240;2022-09-09T05:38:49;6.57;;;5.20;;
51030;SDS011;37058;41.442;23.240;2022-09-09T05:41:24;6.18;;;4.85;;
51030;SDS011;37058;41.442;23.240;2022-09-09T05:44:01;7.10;;;5.20;;
51030;SDS011;37058;41.442;23.240;2022-09-09T05:46:39;7.63;;;4.65;;
51030;SDS011;37058;41.442;23.240;2022-09-09T05:49:15;5.82;;;4.82;;
51030;SDS011;37058;41.442;23.240;2022-09-09T05:52:06;6.28;;;4.47;;
51030;SDS011;37058;41.442;23.240;2022-09-09T05:55:02;5.95;;;4.35;;
51030;SDS011;37058;41.442;23.240;2022-09-09T06:01:28;5.05;;;4.28;;
51030;SDS011;37058;41.442;23.240;2022-09-09T06:04:22;4.70;;;3.40;;
51030;SDS011;37058;41.442;23.240;2022-09-09T06:06:55;5.88;;;3.58;;
51030;SDS011;37058;41.442;23.240;2022-09-09T06:09:31;4.60;;;3.47;;
51030;SDS011;37058;41.442;23.240;2022-09-09T06:12:13;4.32;;;2.97;;
51030;SDS011;37058;41.442;23.240;2022-09-09T06:17:34;5.47;;;3.28;;
51030;SDS011;37058;41.442;23.240;2022-09-09T06:20:30;4.60;;;3.15;;
51030;SDS011;37058;41.442;23.240;2022-09-09T06:23:25;6.85;;;4.25;;
51030;SDS011;37058;41.442;23.240;2022-09-09T06:29:38;4.63;;;3.65;;
51030;SDS011;37058;41.442;23.240;2022-09-09T06:32:06;5.55;;;3.95;;
51030;SDS011;37058;41.442;23.240;2022-09-09T06:34:33;5.07;;;3.53;;
51030;SDS011;37058;41.442;23.240;2022-09-09T06:37:06;4.65;;;3.40;;
51030;SDS011;37058;41.442;23.240;2022-09-09T06:40:14;6.07;;;3.83;;
51030;SDS011;37058;41.442;23.240;2022-09-09T06:46:38;4.32;;;3.45;;
51030;SDS011;37058;41.442;23.240;2022-09-09T06:49:33;6.30;;;4.15;;
51030;SDS011;37058;41.442;23.240;2022-09-09T06:52:08;5.13;;;4.30;;
51030;SDS011;37058;41.442;23.240;2022-09-09T06:54:45;5.63;;;4.22;;
51030;SDS011;37058;41.442;23.240;2022-09-09T06:57:18;6.85;;;4.00;;
51030;SDS011;37058;41.442;23.240;2022-09-09T06:59:54;6.18;;;4.32;;
51030;SDS011;37058;41.442;23.240;2022-09-09T07:02:26;5.70;;;4.60;;
51030;SDS011;37058;41.442;23.240;2022-09-09T07:04:53;4.65;;;3.33;;
51030;SDS011;37058;41.442;23.240;2022-09-09T07:07:24;4.60;;;4.05;;
51030;SDS011;37058;41.442;23.240;2022-09-09T07:09:51;5.60;;;4.22;;
51030;SDS011;37058;41.442;23.240;2022-09-09T07:12:17;6.03;;;4.00;;
51030;SDS011;37058;41.442;23.240;2022-09-09T07:14:44;5.35;;;4.38;;
51030;SDS011;37058;41.442;23.240;2022-09-09T07:17:10;5.38;;;4.05;;
51030;SDS011;37058;41.442;23.240;2022-09-09T07:19:39;6.10;;;4.30;;
51030;SDS011;37058;41.442;23.240;2022-09-09T07:22:06;4.43;;;3.40;;
51030;SDS011;37058;41.442;23.240;2022-09-09T07:24:38;5.43;;;4.28;;
51030;SDS011;37058;41.442;23.240;2022-09-09T07:27:10;5.43;;;3.63;;
51030;SDS011;37058;41.442;23.240;2022-09-09T07:29:36;5.32;;;4.20;;
51030;SDS011;37058;41.442;23.240;2022-09-09T07:32:24;4.95;;;3.75;;
51030;SDS011;37058;41.442;23.240;2022-09-09T07:38:01;9.45;;;3.75;;
51030;SDS011;37058;41.442;23.240;2022-09-09T07:41:17;10.30;;;3.90;;
51030;SDS011;37058;41.442;23.240;2022-09-09T07:44:30;8.75;;;3.75;;
51030;SDS011;37058;41.442;23.240;2022-09-09T07:47:01;5.13;;;3.03;;
51030;SDS011;37058;41.442;23.240;2022-09-09T07:49:36;4.43;;;3.28;;
51030;SDS011;37058;41.442;23.240;2022-09-09T07:55:44;5.38;;;3.20;;
51030;SDS011;37058;41.442;23.240;2022-09-09T08:01:11;6.35;;;3.00;;
51030;SDS011;37058;41.442;23.240;2022-09-09T08:04:11;3.83;;;2.80;;
51030;SDS011;37058;41.442;23.240;2022-09-09T08:07:09;4.78;;;3.55;;
51030;SDS011;37058;41.442;23.240;2022-09-09T08:09:46;4.15;;;3.28;;
51030;SDS011;37058;41.442;23.240;2022-09-09T08:12:15;4.30;;;3.13;;
51030;SDS011;37058;41.442;23.240;2022-09-09T08:14:48;6.22;;;3.40;;
51030;SDS011;37058;41.442;23.240;2022-09-09T08:17:19;5.28;;;3.33;;
51030;SDS011;37058;41.442;23.240;2022-09-09T08:19:57;4.88;;;3.67;;
51030;SDS011;37058;41.442;23.240;2022-09-09T08:22:30;5.82;;;3.20;;
51030;SDS011;37058;41.442;23.240;2022-09-09T08:25:07;3.92;;;3.13;;
51030;SDS011;37058;41.442;23.240;2022-09-09T08:28:07;3.78;;;2.92;;
51030;SDS011;37058;41.442;23.240;2022-09-09T08:30:48;3.90;;;3.25;;
51030;SDS011;37058;41.442;23.240;2022-09-09T08:33:14;6.68;;;3.75;;
51030;SDS011;37058;41.442;23.240;2022-09-09T08:35:50;4.82;;;3.53;;
51030;SDS011;37058;41.442;23.240;2022-09-09T08:38:32;5.93;;;3.33;;
51030;SDS011;37058;41.442;23.240;2022-09-09T08:41:19;5.03;;;2.78;;
51030;SDS011;37058;41.442;23.240;2022-09-09T08:47:54;4.22;;;3.50;;
51030;SDS011;37058;41.442;23.240;2022-09-09T08:50:45;3.65;;;3.00;;
51030;SDS011;37058;41.442;23.240;2022-09-09T08:53:23;4.82;;;3.35;;
51030;SDS011;37058;41.442;23.240;2022-09-09T08:56:05;4.13;;;3.30;;
51030;SDS011;37058;41.442;23.240;2022-09-09T08:59:01;4.57;;;3.58;;
51030;SDS011;37058;41.442;23.240;2022-09-09T09:15:59;4.47;;;3.13;;
51030;SDS011;37058;41.442;23.240;2022-09-09T09:18:47;12.93;;;3.78;;
51030;SDS011;37058;41.442;23.240;2022-09-09T09:21:20;4.53;;;3.00;;
51030;SDS011;37058;41.442;23.240;2022-09-09T09:24:29;4.72;;;3.17;;
51030;SDS011;37058;41.442;23.240;2022-09-09T09:27:34;4.43;;;2.97;;
51030;SDS011;37058;41.442;23.240;2022-09-09T09:33:52;10.52;;;4.38;;
51030;SDS011;37058;41.442;23.240;2022-09-09T09:36:24;4.50;;;3.20;;
51030;SDS011;37058;41.442;23.240;2022-09-09T09:39:06;3.88;;;2.78;;
51030;SDS011;37058;41.442;23.240;2022-09-09T09:41:44;4.30;;;2.92;;
51030;SDS011;37058;41.442;23.240;2022-09-09T09:47:15;4.85;;;2.67;;
51030;SDS011;37058;41.442;23.240;2022-09-09T09:49:52;7.15;;;3.40;;
51030;SDS011;37058;41.442;23.240;2022-09-09T09:52:30;3.33;;;2.90;;
51030;SDS011;37058;41.442;23.240;2022-09-09T09:55:03;3.90;;;2.40;;
51030;SDS011;37058;41.442;23.240;2022-09-09T09:57:40;4.13;;;3.15;;
51030;SDS011;37058;41.442;23.240;2022-09-09T10:00:16;4.28;;;2.78;;
51030;SDS011;37058;41.442;23.240;2022-09-09T10:02:55;3.42;;;2.90;;
51030;SDS011;37058;41.442;23.240;2022-09-09T10:05:30;3.42;;;2.85;;
51030;SDS011;37058;41.442;23.240;2022-09-09T10:08:12;4.13;;;3.17;;
51030;SDS011;37058;41.442;23.240;2022-09-09T10:10:53;3.60;;;2.78;;
51030;SDS011;37058;41.442;23.240;2022-09-09T10:14:21;3.78;;;2.90;;
51030;SDS011;37058;41.442;23.240;2022-09-09T10:20:39;3.95;;;2.80;;
51030;SDS011;37058;41.442;23.240;2022-09-09T10:26:37;4.75;;;3.28;;
51030;SDS011;37058;41.442;23.240;2022-09-09T10:32:49;4.18;;;2.95;;
51030;SDS011;37058;41.442;23.240;2022-09-09T10:35:53;4.15;;;3.00;;
51030;SDS011;37058;41.442;23.240;2022-09-09T10:39:36;5.75;;;3.28;;
51030;SDS011;37058;41.442;23.240;2022-09-09T10:42:40;4.38;;;3.50;;
51030;SDS011;37058;41.442;23.240;2022-09-09T10:45:18;5.03;;;3.45;;
51030;SDS011;37058;41.442;23.240;2022-09-09T10:51:57;4.30;;;2.95;;
51030;SDS011;37058;41.442;23.240;2022-09-09T10:54:56;3.78;;;2.90;;
51030;SDS011;37058;41.442;23.240;2022-09-09T10:57:44;8.32;;;3.30;;
51030;SDS011;37058;41.442;23.240;2022-09-09T11:00:40;4.10;;;3.10;;
51030;SDS011;37058;41.442;23.240;2022-09-09T11:03:19;5.13;;;2.95;;
51030;SDS011;37058;41.442;23.240;2022-09-09T11:06:32;4.18;;;2.70;;
51030;SDS011;37058;41.442;23.240;2022-09-09T11:09:10;4.22;;;3.00;;
51030;SDS011;37058;41.442;23.240;2022-09-09T11:11:52;3.47;;;3.15;;
51030;SDS011;37058;41.442;23.240;2022-09-09T11:17:15;6.78;;;4.30;;
51030;SDS011;37058;41.442;23.240;2022-09-09T11:20:11;4.68;;;3.38;;
51030;SDS011;37058;41.442;23.240;2022-09-09T11:22:58;4.28;;;3.03;;
51030;SDS011;37058;41.442;23.240;2022-09-09T11:25:45;3.42;;;2.45;;
51030;SDS011;37058;41.442;23.240;2022-09-09T11:34:50;4.10;;;3.10;;
51030;SDS011;37058;41.442;23.240;2022-09-09T11:38:32;4.20;;;3.30;;
51030;SDS011;37058;41.442;23.240;2022-09-09T11:40:58;5.32;;;3.38;;
